Time;durP1;ratioP1;P1;durP2;ratioP2;P2;SDS_P1;SDS_P2;PMS_P1;PMS_P2;Temp;Humidity;BMP_temperature;BMP_pressure;BME280_temperature;BME280_humidity;BME280_pressure;Samples;Min_cycle;Max_cycle;Signal;HPM_P1;HPM_P2
2022/08/22 00:02:08;;;;;;;1999.90;999.90;;;;;;;17.38;67.66;99142.75;10001269;23;20053;-77
2022/08/22 00:06:32;;;;;;;1999.90;999.90;;;;;;;17.33;67.75;99143.84;10004260;23;20101;-77
2022/08/22 00:10:56;;;;;;;1999.90;999.90;;;;;;;17.31;68.30;99136.03;10029705;23;20030;-77
2022/08/22 00:15:08;;;;;;;1999.90;999.90;;;;;;;17.28;68.23;99137.91;9978784;23;20023;-77
2022/08/22 00:19:17;;;;;;;1999.90;999.90;;;;;;;17.22;68.55;99134.56;10005019;23;20050;-77
2022/08/22 00:23:29;;;;;;;1999.90;999.90;;;;;;;17.16;69.43;99134.78;10004632;23;20022;-77
2022/08/22 00:27:38;;;;;;;1999.90;999.90;;;;;;;17.09;68.27;99128.06;10005516;23;20019;-77
2022/08/22 00:32:09;;;;;;;1999.90;999.90;;;;;;;17.01;68.76;99132.69;10035691;23;20125;-77
2022/08/22 00:36:23;;;;;;;1999.90;999.90;;;;;;;16.89;69.67;99130.53;10015697;23;20118;-77
2022/08/22 00:40:44;;;;;;;1999.90;999.90;;;;;;;16.86;69.87;99127.97;10003877;23;20039;-77
2022/08/22 00:45:02;;;;;;;1999.90;999.90;;;;;;;16.81;70.45;99119.41;10003710;23;20371;-77
2022/08/22 00:49:11;;;;;;;1999.90;999.90;;;;;;;16.79;70.45;99116.00;10029353;23;20023;-77
2022/08/22 00:53:37;;;;;;;1999.90;999.90;;;;;;;16.72;70.58;99114.50;10029564;23;20067;-77
2022/08/22 00:58:24;;;;;;;1999.90;999.90;;;;;;;16.71;71.21;99110.16;10020301;23;20037;-77
2022/08/22 01:02:50;;;;;;;1999.90;999.90;;;;;;;16.68;70.34;99125.97;10036334;23;20030;-78
2022/08/22 01:07:14;;;;;;;1999.90;999.90;;;;;;;16.54;71.09;99122.03;10032872;23;20023;-77
2022/08/22 01:11:38;;;;;;;1999.90;999.90;;;;;;;16.51;71.89;99119.50;9985045;23;20061;-77
2022/08/22 01:15:41;;;;;;;1999.90;999.90;;;;;;;16.49;72.26;99120.44;9973562;23;20030;-78
2022/08/22 01:19:58;;;;;;;1999.90;999.90;;;;;;;16.52;72.46;99123.00;10007858;23;20138;-78
2022/08/22 01:25:16;;;;;;;1999.90;999.90;;;;;;;16.51;72.05;99114.25;10023069;23;20406;-77
2022/08/22 01:29:29;;;;;;;1999.90;999.90;;;;;;;16.42;71.96;99109.31;10032037;23;20038;-77
2022/08/22 01:34:01;;;;;;;1999.90;999.90;;;;;;;16.35;72.11;99110.44;10026437;23;20058;-77
2022/08/22 01:38:34;;;;;;;1999.90;999.90;;;;;;;16.26;72.00;99116.81;9945107;23;20494;-77
2022/08/22 01:43:07;;;;;;;1999.90;999.90;;;;;;;16.12;72.34;99115.53;10031366;23;20062;-77
2022/08/22 01:47:30;;;;;;;1999.90;999.90;;;;;;;15.96;72.70;99115.16;9954857;23;20106;-77
2022/08/22 01:51:49;;;;;;;1999.90;999.90;;;;;;;15.84;73.77;99116.41;10006281;23;20026;-77
2022/08/22 01:55:57;;;;;;;1999.90;999.90;;;;;;;15.77;74.47;99120.09;10006659;23;20058;-77
2022/08/22 02:00:06;;;;;;;1999.90;999.90;;;;;;;15.71;74.85;99117.66;10031549;23;20030;-78
2022/08/22 02:04:12;;;;;;;1999.90;999.90;;;;;;;15.56;75.06;99116.31;10036053;23;20684;-77
2022/08/22 02:08:45;;;;;;;1999.90;999.90;;;;;;;15.48;74.86;99118.31;10036147;23;20055;-77
2022/08/22 02:12:51;;;;;;;1999.90;999.90;;;;;;;15.40;75.43;99121.13;10036183;23;20054;-77
2022/08/22 02:17:20;;;;;;;1999.90;999.90;;;;;;;15.28;76.30;99118.88;10007797;23;20031;-77
2022/08/22 02:21:49;;;;;;;1999.90;999.90;;;;;;;15.17;76.09;99113.06;10012556;23;20054;-77
2022/08/22 02:26:02;;;;;;;1999.90;999.90;;;;;;;15.11;76.68;99105.41;10012740;23;20061;-77
2022/08/22 02:30:44;;;;;;;1999.90;999.90;;;;;;;15.07;76.81;99104.59;10034503;23;20054;-77
2022/08/22 02:35:05;;;;;;;1999.90;999.90;;;;;;;14.93;77.21;99101.53;10035422;23;20042;-77
2022/08/22 02:39:17;;;;;;;1999.90;999.90;;;;;;;14.89;76.88;99104.22;10034698;23;20018;-77
2022/08/22 02:43:28;;;;;;;1999.90;999.90;;;;;;;14.83;77.56;99097.41;10052129;23;20027;-77
2022/08/22 02:47:55;;;;;;;1999.90;999.90;;;;;;;14.74;77.62;99093.31;10006665;23;20027;-77
2022/08/22 02:52:07;;;;;;;1999.90;999.90;;;;;;;14.70;77.30;99091.66;10010979;23;20022;-77
2022/08/22 02:56:32;;;;;;;1999.90;999.90;;;;;;;14.62;77.71;99096.22;10052358;23;20026;-77
2022/08/22 03:00:58;;;;;;;1999.90;999.90;;;;;;;14.55;77.57;99093.81;10006846;23;20027;-77
2022/08/22 03:05:25;;;;;;;1999.90;999.90;;;;;;;14.46;77.18;99098.34;10032932;23;20018;-77
2022/08/22 03:09:39;;;;;;;1999.90;999.90;;;;;;;14.39;77.11;99104.63;10030932;23;20053;-77
2022/08/22 03:13:56;;;;;;;1999.90;999.90;;;;;;;14.31;77.77;99097.84;10006606;23;20050;-77
2022/08/22 03:18:04;;;;;;;1999.90;999.90;;;;;;;14.32;78.91;99095.19;10031191;23;20022;-77
2022/08/22 03:22:15;;;;;;;1999.90;999.90;;;;;;;14.29;78.95;99095.28;10046685;23;20022;-77
2022/08/22 03:26:25;;;;;;;1999.90;999.90;;;;;;;14.23;79.15;99091.97;10006345;23;20685;-77
2022/08/22 03:30:34;;;;;;;1999.90;999.90;;;;;;;14.10;79.51;99088.78;9992431;23;20082;-77
2022/08/22 03:34:37;;;;;;;1999.90;999.90;;;;;;;13.98;79.39;99083.81;10029003;23;20574;-77
2022/08/22 03:38:50;;;;;;;1999.90;999.90;;;;;;;13.88;79.65;99081.44;10047116;23;20607;-77
2022/08/22 03:43:17;;;;;;;1999.90;999.90;;;;;;;13.79;80.01;99075.56;9982372;23;20022;-77
2022/08/22 03:48:01;;;;;;;1999.90;999.90;;;;;;;13.73;79.82;99073.94;10001914;23;20065;-77
2022/08/22 03:52:13;;;;;;;1999.90;999.90;;;;;;;13.66;80.32;99075.00;10005526;23;20026;-77
2022/08/22 03:56:33;;;;;;;1999.90;999.90;;;;;;;13.60;81.19;99078.56;10005391;23;20078;-77
2022/08/22 04:00:52;;;;;;;1999.90;999.90;;;;;;;13.58;81.07;99085.56;10040974;23;20438;-77
2022/08/22 04:05:07;;;;;;;1999.90;999.90;;;;;;;13.54;81.87;99091.75;9982485;23;20053;-77
2022/08/22 04:09:34;;;;;;;1999.90;999.90;;;;;;;13.48;82.95;99089.28;10021874;23;20573;-77
2022/08/22 04:14:08;;;;;;;1999.90;999.90;;;;;;;13.40;82.43;99101.63;9981941;23;20438;-77
2022/08/22 04:18:28;;;;;;;1999.90;999.90;;;;;;;13.34;83.61;99090.47;10030716;23;20033;-77
2022/08/22 04:23:11;;;;;;;1999.90;999.90;;;;;;;13.32;83.56;99084.41;9981998;23;20030;-77
2022/08/22 04:27:28;;;;;;;1999.90;999.90;;;;;;;13.32;83.57;99087.88;10046364;23;20081;-77
2022/08/22 04:31:35;;;;;;;1999.90;999.90;;;;;;;13.29;82.39;99090.56;10026770;23;20026;-77
2022/08/22 04:36:03;;;;;;;1999.90;999.90;;;;;;;13.30;82.77;99084.44;10004923;23;20082;-77
2022/08/22 04:40:23;;;;;;;1999.90;999.90;;;;;;;13.28;82.88;99091.41;10005737;23;20019;-77
2022/08/22 04:44:40;;;;;;;1999.90;999.90;;;;;;;13.24;83.02;99097.59;10005295;23;20023;-77
2022/08/22 04:48:46;;;;;;;1999.90;999.90;;;;;;;13.24;83.76;99098.44;10028724;23;20050;-77
2022/08/22 04:53:03;;;;;;;1999.90;999.90;;;;;;;13.24;83.82;99105.41;10030697;23;20022;-77
2022/08/22 04:57:29;;;;;;;1999.90;999.90;;;;;;;13.20;83.75;99095.94;10005263;23;20097;-77
2022/08/22 05:01:57;;;;;;;1999.90;999.90;;;;;;;13.21;83.69;99103.72;9978467;23;20027;-77
2022/08/22 05:06:02;;;;;;;1999.90;999.90;;;;;;;13.16;83.94;99110.75;10029123;23;20458;-77
2022/08/22 05:10:20;;;;;;;1999.90;999.90;;;;;;;13.11;84.42;99116.97;10031518;23;20019;-77
2022/08/22 05:14:51;;;;;;;1999.90;999.90;;;;;;;13.15;84.94;99110.78;10045568;23;20023;-77
2022/08/22 05:19:08;;;;;;;1999.90;999.90;;;;;;;13.28;84.51;99122.72;9996005;23;20094;-77
2022/08/22 05:23:33;;;;;;;1999.90;999.90;;;;;;;13.42;84.34;99122.44;10006985;23;20022;-77
2022/08/22 05:27:42;;;;;;;1999.90;999.90;;;;;;;13.54;83.59;99123.06;10028012;23;20051;-77
2022/08/22 05:32:00;;;;;;;1999.90;999.90;;;;;;;13.67;83.79;99123.66;10046630;23;20315;-77
2022/08/22 05:36:09;;;;;;;1999.90;999.90;;;;;;;13.83;83.46;99118.97;10043199;23;20089;-77
2022/08/22 05:40:28;;;;;;;1999.90;999.90;;;;;;;13.97;82.39;99118.66;9981043;23;20026;-78
2022/08/22 05:44:33;;;;;;;1999.90;999.90;;;;;;;14.15;80.90;99124.31;10030960;23;20934;-78
2022/08/22 05:48:47;;;;;;;1999.90;999.90;;;;;;;14.44;80.39;99134.13;10033730;23;20054;-78
2022/08/22 05:53:24;;;;;;;1999.90;999.90;;;;;;;15.67;76.32;99148.31;10048056;23;20101;-78
2022/08/22 05:57:37;;;;;;;1999.90;999.90;;;;;;;16.49;72.38;99147.50;10009368;23;20030;-78
2022/08/22 06:02:02;;;;;;;1999.90;999.90;;;;;;;16.84;70.40;99146.38;9986406;23;20026;-78
2022/08/22 06:06:16;;;;;;;1999.90;999.90;;;;;;;16.99;69.75;99142.38;10011918;23;20030;-77
2022/08/22 06:10:30;;;;;;;1999.90;999.90;;;;;;;17.11;69.96;99141.97;10034219;23;20018;-78
2022/08/22 06:14:43;;;;;;;1999.90;999.90;;;;;;;17.44;68.63;99144.31;9981803;23;20054;-77
2022/08/22 06:18:49;;;;;;;1999.90;999.90;;;;;;;17.78;67.16;99146.59;10029284;23;20053;-77
2022/08/22 06:22:55;;;;;;;1999.90;999.90;;;;;;;18.07;65.36;99154.19;10031677;23;20037;-78
2022/08/22 06:27:04;;;;;;;1999.90;999.90;;;;;;;18.43;65.08;99156.31;10024679;23;20030;-78
2022/08/22 06:31:18;;;;;;;1999.90;999.90;;;;;;;18.81;64.81;99154.75;10008794;23;20026;-78
2022/08/22 06:35:26;;;;;;;1999.90;999.90;;;;;;;19.31;63.93;99157.88;10030780;23;20069;-78
2022/08/22 06:39:32;;;;;;;1999.90;999.90;;;;;;;19.95;60.79;99158.59;10033369;23;20054;-78
2022/08/22 06:43:42;;;;;;;1999.90;999.90;;;;;;;20.43;59.77;99161.56;10050145;23;20019;-76
2022/08/22 06:48:04;;;;;;;1999.90;999.90;;;;;;;20.76;58.92;99164.34;10007307;23;20038;-78
2022/08/22 06:52:11;;;;;;;1999.90;999.90;;;;;;;21.16;57.26;99153.53;10032968;23;20471;-78
2022/08/22 06:56:19;;;;;;;1999.90;999.90;;;;;;;21.50;55.96;99150.88;9983046;23;20073;-77
2022/08/22 07:00:21;;;;;;;1999.90;999.90;;;;;;;21.71;53.78;99152.38;10047518;23;20023;-78
2022/08/22 07:04:25;;;;;;;1999.90;999.90;;;;;;;22.01;52.88;99163.09;10007521;23;20051;-78
2022/08/22 07:08:29;;;;;;;1999.90;999.90;;;;;;;22.25;51.35;99157.41;10008194;23;20339;-78
2022/08/22 07:12:35;;;;;;;1999.90;999.90;;;;;;;22.61;50.45;99155.31;10030451;23;20022;-78
2022/08/22 07:16:49;;;;;;;1999.90;999.90;;;;;;;22.97;49.08;99155.94;9983654;23;20292;-78
2022/08/22 07:21:01;;;;;;;1999.90;999.90;;;;;;;23.28;48.32;99163.78;9984067;23;20038;-78
2022/08/22 07:25:11;;;;;;;1999.90;999.90;;;;;;;23.59;47.73;99161.97;10032255;23;20034;-77
2022/08/22 07:29:44;;;;;;;1999.90;999.90;;;;;;;23.84;45.43;99162.16;10009560;23;20023;-77
2022/08/22 07:33:50;;;;;;;1999.90;999.90;;;;;;;24.16;44.87;99156.63;10030658;23;20026;-78
2022/08/22 07:37:58;;;;;;;1999.90;999.90;;;;;;;24.46;44.17;99152.03;10007972;23;20030;-77
2022/08/22 07:42:22;;;;;;;1999.90;999.90;;;;;;;24.72;43.08;99147.66;10048401;23;20322;-78
2022/08/22 07:46:37;;;;;;;1999.90;999.90;;;;;;;25.04;42.81;99153.50;10033915;23;20033;-78
2022/08/22 07:51:00;;;;;;;1999.90;999.90;;;;;;;25.32;41.64;99146.31;10008446;23;20423;-78
2022/08/22 07:55:22;;;;;;;1999.90;999.90;;;;;;;25.59;40.49;99152.38;10029226;23;20066;-75
2022/08/22 07:59:27;;;;;;;1999.90;999.90;;;;;;;25.88;40.11;99151.22;10008728;23;20018;-78
2022/08/22 08:03:30;;;;;;;1999.90;999.90;;;;;;;25.99;39.96;99150.44;10034475;23;20018;-78
2022/08/22 08:07:31;;;;;;;1999.90;999.90;;;;;;;26.01;40.07;99164.47;10030935;23;20046;-78
2022/08/22 08:11:39;;;;;;;1999.90;999.90;;;;;;;26.28;39.03;99166.97;10009192;23;20642;-77
2022/08/22 08:15:44;;;;;;;1999.90;999.90;;;;;;;26.43;38.47;99167.72;9981766;23;20034;-77
2022/08/22 08:19:46;;;;;;;1999.90;999.90;;;;;;;26.79;37.66;99169.47;10029453;23;20049;-77
2022/08/22 08:23:48;;;;;;;1999.90;999.90;;;;;;;26.92;37.85;99164.03;10031808;23;20022;-77
2022/08/22 08:32:12;;;;;;;;;;;;;;;26.71;37.38;99164.69;10045399;23;20034;-77
2022/08/22 08:36:36;;;;;;;1999.90;999.90;;;;;;;26.72;38.86;99160.22;9980638;23;20642;-77
2022/08/22 08:41:10;;;;;;;1999.90;999.90;;;;;;;27.10;37.05;99176.00;9957826;23;20360;-77
2022/08/22 08:45:25;;;;;;;1999.90;999.90;;;;;;;27.24;36.27;99178.50;9997604;23;20030;-77
2022/08/22 08:49:39;;;;;;;1999.90;999.90;;;;;;;27.33;36.72;99179.63;9982194;23;20026;-77
2022/08/22 08:54:08;;;;;;;1999.90;999.90;;;;;;;26.92;37.78;99177.38;9996517;23;20023;-77
2022/08/22 08:58:18;;;;;;;1999.90;999.90;;;;;;;27.22;37.28;99168.91;9956530;23;20086;-77
2022/08/22 09:02:33;;;;;;;1999.90;999.90;;;;;;;27.44;35.79;99173.44;9997466;23;20110;-77
2022/08/22 09:07:03;;;;;;;1999.90;999.90;;;;;;;27.40;34.47;99165.69;9957544;23;20019;-77
2022/08/22 09:11:29;;;;;;;1999.90;999.90;;;;;;;27.58;34.06;99171.41;9958469;23;20019;-75
2022/08/22 09:15:50;;;;;;;1999.90;999.90;;;;;;;27.82;34.54;99162.47;9957648;23;20027;-77
2022/08/22 09:20:18;;;;;;;1999.90;999.90;;;;;;;28.20;33.45;99149.59;9996047;23;20058;-75
2022/08/22 09:24:39;;;;;;;1999.90;999.90;;;;;;;28.53;33.85;99151.34;9981772;23;20650;-74
2022/08/22 09:28:52;;;;;;;;;;;;;;;28.70;32.42;99149.94;10001491;23;20019;-76
2022/08/22 09:33:03;;;;;;;1999.90;999.90;;;;;;;28.85;33.03;99151.34;9976036;23;19918;-77
2022/08/22 09:37:19;;;;;;;1999.90;999.90;;;;;;;28.78;31.65;99150.19;9963737;23;20043;-77
2022/08/22 09:41:24;;;;;;;1999.90;999.90;;;;;;;29.04;32.42;99141.81;9962910;23;20379;-76
2022/08/22 09:45:49;;;;;;;1999.90;999.90;;;;;;;29.30;32.28;99126.25;9985923;23;20145;-75
2022/08/22 09:50:19;;;;;;;1999.90;999.90;;;;;;;29.43;31.63;99125.03;9979265;23;20594;-77
2022/08/22 09:54:29;;;;;;;1999.90;999.90;;;;;;;29.58;31.59;99122.88;9965619;23;20019;-76
2022/08/22 09:58:58;;;;;;;1999.90;999.90;;;;;;;29.62;30.30;99118.09;10003050;23;20085;-77
2022/08/22 10:03:31;;;;;;;1999.90;999.90;;;;;;;29.69;31.04;99119.28;10028809;23;20033;-77
2022/08/22 10:07:47;;;;;;;1999.90;999.90;;;;;;;29.83;30.66;99113.56;10028466;23;20027;-76
2022/08/22 10:12:02;;;;;;;1999.90;999.90;;;;;;;30.05;30.24;99113.38;10018732;23;20338;-77
2022/08/22 10:16:19;;;;;;;1999.90;999.90;;;;;;;30.16;29.33;99104.38;10011976;23;20046;-77
2022/08/22 10:20:35;;;;;;;1999.90;999.90;;;;;;;30.13;28.36;99109.16;10044849;23;20488;-77
2022/08/22 10:25:12;;;;;;;1999.90;999.90;;;;;;;30.13;28.61;99101.13;10043477;23;20034;-77
2022/08/22 10:29:33;;;;;;;1999.90;999.90;;;;;;;30.13;27.69;99090.41;9978091;23;20858;-77
2022/08/22 10:33:48;;;;;;;1999.90;999.90;;;;;;;30.17;27.19;99090.00;10022732;23;20035;-76
2022/08/22 10:38:13;;;;;;;1999.90;999.90;;;;;;;29.92;27.28;99085.13;10019437;23;20030;-77
2022/08/22 10:42:27;;;;;;;1999.90;999.90;;;;;;;29.95;28.67;99083.00;10027144;23;20046;-77
2022/08/22 10:46:44;;;;;;;1999.90;999.90;;;;;;;30.07;26.81;99081.09;9998071;23;20027;-77
2022/08/22 10:50:54;;;;;;;1999.90;999.90;;;;;;;29.94;26.46;99073.28;9978935;23;20018;-77
2022/08/22 10:55:05;;;;;;;1999.90;999.90;;;;;;;30.09;26.94;99068.41;10001678;23;20342;-77
2022/08/22 10:59:19;;;;;;;1999.90;999.90;;;;;;;30.27;27.34;99066.75;10028337;23;20023;-77
2022/08/22 11:03:41;;;;;;;1999.90;999.90;;;;;;;30.46;25.66;99057.88;9997482;23;20034;-77
2022/08/22 11:07:54;;;;;;;;;;;;;;;30.45;24.69;99060.69;10027490;23;20410;-77
2022/08/22 11:12:11;;;;;;;1999.90;999.90;;;;;;;30.47;26.02;99051.53;10031921;23;20293;-78
2022/08/22 11:16:41;;;;;;;1999.90;999.90;;;;;;;30.70;26.14;99061.97;10028710;23;20081;-77
2022/08/22 11:20:53;;;;;;;1999.90;999.90;;;;;;;30.80;24.66;99058.31;10049108;23;20327;-77
2022/08/22 11:25:34;;;;;;;1999.90;999.90;;;;;;;30.67;26.19;99053.22;10030874;23;20022;-77
2022/08/22 11:29:39;;;;;;;1999.90;999.90;;;;;;;30.87;25.04;99048.69;10011987;23;20070;-78
2022/08/22 11:34:07;;;;;;;1999.90;999.90;;;;;;;31.08;24.98;99045.84;9973793;23;20089;-77
2022/08/22 11:38:32;;;;;;;1999.90;999.90;;;;;;;31.24;26.26;99042.59;10024261;23;20407;-77
2022/08/22 11:42:44;;;;;;;1999.90;999.90;;;;;;;31.18;25.24;99041.31;10024063;23;20022;-77
2022/08/22 11:46:50;;;;;;;1999.90;999.90;;;;;;;31.46;25.13;99049.41;10020522;23;20053;-77
2022/08/22 11:51:09;;;;;;;1999.90;999.90;;;;;;;31.63;25.46;99040.56;10022101;23;20015;-77
2022/08/22 11:55:30;;;;;;;1999.90;999.90;;;;;;;31.74;25.95;99031.50;10022416;23;20074;-76
2022/08/22 11:59:43;;;;;;;1999.90;999.90;;;;;;;31.92;25.67;99015.41;10000727;23;20023;-77
2022/08/22 12:04:02;;;;;;;1999.90;999.90;;;;;;;31.89;25.31;99013.03;10022792;23;20483;-77
2022/08/22 12:08:21;;;;;;;1999.90;999.90;;;;;;;31.70;24.99;99030.06;10024814;23;20093;-76
2022/08/22 12:12:49;;;;;;;1999.90;999.90;;;;;;;31.63;26.17;99024.47;10041224;23;20113;-77
2022/08/22 12:17:11;;;;;;;1999.90;999.90;;;;;;;31.40;26.39;99023.16;9996875;23;20114;-76
2022/08/22 12:21:41;;;;;;;1999.90;999.90;;;;;;;30.91;26.88;99011.72;10025905;23;20019;-76
2022/08/22 12:26:21;;;;;;;1999.90;999.90;;;;;;;30.63;26.51;99013.47;10001166;23;20296;-77
2022/08/22 12:30:45;;;;;;;1999.90;999.90;;;;;;;30.55;25.43;99005.28;9997340;23;20023;-77
2022/08/22 12:35:15;;;;;;;1999.90;999.90;;;;;;;30.37;25.82;99007.81;10024883;23;20272;-77
2022/08/22 12:39:39;;;;;;;1999.90;999.90;;;;;;;30.21;26.62;99000.34;10000674;23;20026;-77
2022/08/22 12:44:00;;;;;;;1999.90;999.90;;;;;;;30.18;25.62;99002.47;10040902;23;20027;-77
2022/08/22 12:48:16;;;;;;;1999.90;999.90;;;;;;;30.01;26.94;99004.81;10024811;23;20058;-77
2022/08/22 12:52:36;;;;;;;1999.90;999.90;;;;;;;29.87;26.06;99002.53;10025429;23;20045;-77
2022/08/22 12:56:49;;;;;;;1999.90;999.90;;;;;;;29.79;28.01;98994.34;10025240;23;20034;-77
2022/08/22 13:00:56;;;;;;;1999.90;999.90;;;;;;;29.82;28.62;98986.06;9996730;23;20098;-77
2022/08/22 13:05:21;;;;;;;1999.90;999.90;;;;;;;29.78;28.93;98995.31;10027531;23;20466;-77
2022/08/22 13:09:47;;;;;;;1999.90;999.90;;;;;;;29.81;29.01;98987.03;9994352;23;20027;-77
2022/08/22 13:13:58;;;;;;;1999.90;999.90;;;;;;;30.12;27.94;98986.94;10026097;23;20019;-77
2022/08/22 13:18:05;;;;;;;1999.90;999.90;;;;;;;30.29;26.01;98986.25;9994615;23;20323;-77
2022/08/22 13:22:33;;;;;;;1999.90;999.90;;;;;;;30.43;27.84;98980.44;10025789;23;20031;-77
2022/08/22 13:26:35;;;;;;;1999.90;999.90;;;;;;;30.62;25.97;98977.78;10041614;23;20019;-77
2022/08/22 13:30:41;;;;;;;1999.90;999.90;;;;;;;30.72;25.02;98979.59;9998555;23;20014;-77
2022/08/22 13:34:49;;;;;;;1999.90;999.90;;;;;;;30.89;25.09;98982.38;10001073;23;20648;-77
2022/08/22 13:38:58;;;;;;;1999.90;999.90;;;;;;;30.98;24.25;98976.13;10000911;23;20465;-77
2022/08/22 13:43:12;;;;;;;1999.90;999.90;;;;;;;31.13;24.40;98973.81;10003008;23;20061;-77
2022/08/22 13:47:20;;;;;;;1999.90;999.90;;;;;;;31.17;24.05;98977.03;9996360;23;20323;-77
2022/08/22 13:51:44;;;;;;;1999.90;999.90;;;;;;;30.97;24.24;98970.91;10003143;23;20019;-77
2022/08/22 13:55:53;;;;;;;1999.90;999.90;;;;;;;31.05;25.70;98967.47;10002701;23;20026;-78
2022/08/22 14:00:20;;;;;;;1999.90;999.90;;;;;;;31.04;24.55;98963.13;9978736;23;20019;-77
2022/08/22 14:04:35;;;;;;;1999.90;999.90;;;;;;;31.17;25.19;98959.13;9998002;23;20504;-77
2022/08/22 14:08:41;;;;;;;1999.90;999.90;;;;;;;31.03;25.82;98953.38;10029828;23;20050;-77
2022/08/22 14:12:55;;;;;;;1999.90;999.90;;;;;;;31.14;26.13;98945.16;10030752;23;20065;-77
2022/08/22 14:16:58;;;;;;;1999.90;999.90;;;;;;;31.29;25.24;98940.19;10025690;23;20331;-76
2022/08/22 14:21:19;;;;;;;1999.90;999.90;;;;;;;31.57;24.55;98937.31;10002055;23;20058;-77
2022/08/22 14:25:23;;;;;;;1999.90;999.90;;;;;;;31.55;24.12;98930.41;10004496;23;20023;-77
2022/08/22 14:29:30;;;;;;;1999.90;999.90;;;;;;;31.68;24.38;98928.19;10029495;23;20019;-77
2022/08/22 14:33:37;;;;;;;1999.90;999.90;;;;;;;31.84;24.00;98927.56;10025390;23;20034;-78
2022/08/22 14:37:44;;;;;;;1999.90;999.90;;;;;;;31.67;23.36;98931.03;10028874;23;20110;-77
2022/08/22 14:41:55;;;;;;;1999.90;999.90;;;;;;;31.49;24.53;98929.19;10005112;23;20015;-77
2022/08/22 14:46:06;;;;;;;1999.90;999.90;;;;;;;31.27;24.38;98929.59;10022034;23;20308;-77
2022/08/22 14:50:34;;;;;;;1999.90;999.90;;;;;;;31.37;23.91;98921.47;9997392;23;20123;-77
2022/08/22 14:54:38;;;;;;;1999.90;999.90;;;;;;;31.55;24.74;98911.63;10002965;23;20101;-78
2022/08/22 14:58:58;;;;;;;1999.90;999.90;;;;;;;31.76;24.87;98903.28;10042020;23;20413;-77
2022/08/22 15:03:22;;;;;;;1999.90;999.90;;;;;;;31.57;21.93;98909.63;9998084;23;20035;-77
2022/08/22 15:07:31;;;;;;;1999.90;999.90;;;;;;;31.42;22.66;98903.06;9975217;23;20027;-77
2022/08/22 15:11:36;;;;;;;1999.90;999.90;;;;;;;31.59;24.08;98899.56;10004216;23;20031;-77
2022/08/22 15:15:45;;;;;;;1999.90;999.90;;;;;;;31.47;24.14;98893.59;9997193;23;20257;-78
2022/08/22 15:20:10;;;;;;;1999.90;999.90;;;;;;;30.97;23.46;98893.97;10025251;23;20054;-77
2022/08/22 15:24:13;;;;;;;1999.90;999.90;;;;;;;30.52;25.49;98890.28;10000777;23;20052;-76
2022/08/22 15:28:19;;;;;;;1999.90;999.90;;;;;;;30.27;26.07;98891.78;10042441;23;20062;-77
2022/08/22 15:32:24;;;;;;;1999.90;999.90;;;;;;;30.49;25.90;98885.22;9974940;23;20030;-77
2022/08/22 15:36:27;;;;;;;1999.90;999.90;;;;;;;30.74;23.59;98886.47;10026559;23;20033;-76
2022/08/22 15:40:39;;;;;;;1999.90;999.90;;;;;;;31.08;24.48;98878.69;10027326;23;20085;-77
2022/08/22 15:44:46;;;;;;;1999.90;999.90;;;;;;;31.40;24.28;98876.41;10002175;23;20110;-77
2022/08/22 15:49:11;;;;;;;1999.90;999.90;;;;;;;31.72;24.28;98873.22;10021491;23;20030;-77
2022/08/22 15:53:20;;;;;;;1999.90;999.90;;;;;;;32.04;23.84;98877.19;10026129;23;20022;-77
2022/08/22 15:57:39;;;;;;;1999.90;999.90;;;;;;;32.12;23.74;98871.88;10022893;23;20502;-77
2022/08/22 16:01:48;;;;;;;1999.90;999.90;;;;;;;31.85;23.65;98879.06;10022285;23;20692;-78
2022/08/22 16:06:36;;;;;;;1999.90;999.90;;;;;;;31.34;24.85;98882.38;10002596;23;20081;-77
2022/08/22 16:11:02;;;;;;;1999.90;999.90;;;;;;;30.85;26.60;98894.31;10026031;23;20097;-77
2022/08/22 16:15:43;;;;;;;1999.90;999.90;;;;;;;30.94;26.29;98888.06;9997517;23;20031;-76
2022/08/22 16:19:45;;;;;;;1999.90;999.90;;;;;;;31.23;25.85;98878.06;9976695;23;20027;-77
2022/08/22 16:23:55;;;;;;;1999.90;999.90;;;;;;;31.47;25.93;98877.50;10000866;23;20559;-77
2022/08/22 16:27:57;;;;;;;1999.90;999.90;;;;;;;31.41;24.54;98882.59;10001744;23;20026;-77
2022/08/22 16:32:04;;;;;;;1999.90;999.90;;;;;;;30.97;25.83;98875.22;10029640;23;20284;-77
2022/08/22 16:36:36;;;;;;;1999.90;999.90;;;;;;;30.49;26.63;98879.88;10041664;23;20466;-77
2022/08/22 16:40:46;;;;;;;1999.90;999.90;;;;;;;30.11;26.81;98875.44;10026440;23;20019;-76
2022/08/22 16:44:55;;;;;;;1999.90;999.90;;;;;;;29.77;28.74;98884.72;10000063;23;20019;-77
2022/08/22 16:49:00;;;;;;;1999.90;999.90;;;;;;;29.48;29.58;98875.84;9998901;23;20050;-77
2022/08/22 16:53:08;;;;;;;1999.90;999.90;;;;;;;29.24;28.02;98870.84;10025243;23;20034;-77
2022/08/22 16:57:21;;;;;;;1999.90;999.90;;;;;;;29.05;30.47;98870.78;10000734;23;20494;-77
2022/08/22 17:01:36;;;;;;;1999.90;999.90;;;;;;;28.86;28.53;98871.56;9995859;23;20027;-77
2022/08/22 17:05:47;;;;;;;1999.90;999.90;;;;;;;28.65;29.31;98876.09;10025695;23;20023;-76
2022/08/22 17:10:25;;;;;;;1999.90;999.90;;;;;;;28.40;29.54;98870.22;10026728;23;20026;-77
2022/08/22 17:14:39;;;;;;;1999.90;999.90;;;;;;;28.18;29.52;98871.16;10021997;23;20736;-77
2022/08/22 17:18:48;;;;;;;1999.90;999.90;;;;;;;28.03;30.32;98877.81;10021706;23;20027;-77
2022/08/22 17:22:56;;;;;;;1999.90;999.90;;;;;;;27.81;31.83;98883.25;9998368;23;20023;-77
2022/08/22 17:27:30;;;;;;;1999.90;999.90;;;;;;;27.54;33.52;98884.53;9999453;23;20023;-77
2022/08/22 17:31:59;;;;;;;1999.90;999.90;;;;;;;27.36;31.37;98883.38;9971485;23;20724;-77
2022/08/22 17:36:17;;;;;;;1999.90;999.90;;;;;;;27.17;34.10;98880.50;9976156;23;20104;-77
2022/08/22 17:40:44;;;;;;;1999.90;999.90;;;;;;;26.85;35.16;98878.56;9977945;23;20018;-76
2022/08/22 17:44:57;;;;;;;1999.90;999.90;;;;;;;26.57;36.52;98884.38;10002995;23;20110;-76
2022/08/22 17:49:39;;;;;;;1999.90;999.90;;;;;;;26.22;37.75;98885.28;9998108;23;20031;-77
2022/08/22 17:53:53;;;;;;;1999.90;999.90;;;;;;;25.99;37.84;98888.81;9990838;23;20089;-76
2022/08/22 17:58:24;;;;;;;1999.90;999.90;;;;;;;25.81;37.34;98893.72;10041893;23;20022;-77
2022/08/22 18:03:00;;;;;;;1999.90;999.90;;;;;;;25.56;37.98;98897.31;10002205;23;20041;-76
2022/08/22 18:07:44;;;;;;;1999.90;999.90;;;;;;;25.28;39.70;98898.47;10042241;23;20031;-77
2022/08/22 18:12:03;;;;;;;1999.90;999.90;;;;;;;24.88;39.77;98890.69;9960028;23;20047;-77
2022/08/22 18:16:10;;;;;;;1999.90;999.90;;;;;;;24.58;40.44;98898.16;9996962;23;20058;-77
2022/08/22 18:20:20;;;;;;;1999.90;999.90;;;;;;;24.36;42.02;98891.66;10027224;23;20018;-76
2022/08/22 18:24:38;;;;;;;1999.90;999.90;;;;;;;24.20;41.79;98898.09;10003517;23;20022;-76
2022/08/22 18:28:51;;;;;;;1999.90;999.90;;;;;;;24.00;42.64;98900.31;10027045;23;20050;-77
2022/08/22 18:33:20;;;;;;;1999.90;999.90;;;;;;;23.84;43.83;98912.03;10023715;23;20041;-77
2022/08/22 18:37:31;;;;;;;1999.90;999.90;;;;;;;23.60;44.46;98922.47;9996634;23;20026;-77
2022/08/22 18:41:44;;;;;;;1999.90;999.90;;;;;;;23.38;45.14;98915.88;10021287;23;20053;-76
2022/08/22 18:45:45;;;;;;;1999.90;999.90;;;;;;;23.15;45.31;98914.66;9975399;23;20047;-77
2022/08/22 18:49:53;;;;;;;1999.90;999.90;;;;;;;22.98;45.46;98919.31;10025352;23;20447;-76
2022/08/22 18:54:03;;;;;;;1999.90;999.90;;;;;;;22.78;45.70;98925.81;10023936;23;20582;-76
2022/08/22 18:58:23;;;;;;;1999.90;999.90;;;;;;;22.56;46.98;98929.78;10015964;23;20119;-75